Search for airport 
image banner adimage banner adimage banner ad
image banner ad

KAXQ - Clarion County

Located in Clarion, United States

ICAO - AXQ, IATA -

Data provided by Airmate  

General information

Coordinates: N41°13'30" W79°26'32"
Elevation is 1458 feet MSL.
Magnetic variation is -10° East
View others Airports in Pennsylvania

Operational data

Special qualification required
Current time UTC:
Current local time:
Weather at : KFKL - Venango Rgnl ( 39 km )
METAR: KFKL 091656Z AUTO 09004KT 1/2SM SN FG OVC002 01/00 A2994 RMK AO2 PRESFR SLP154 P0012 T00060000 FZRANO
TAF: KFKL 091601Z 0916/1012 08008KT 5SM RA BR OVC005 TEMPO 0916/0918 2SM -SN OVC004 FM100100 02006KT 4SM -RA BR OVC005 FM100400 36004KT P6SM BKN006 FM100900 29005KT P6SM BKN010
View NOTAMs / SUP AIP / TFR affecting this airport [VIEW]
Communications frequencies: [VIEW]

Runways:

RWY identifierQFULength (ft)Width (ft)SurfaceLDA (ft)
0645°500375ASPH
24225°500375ASPH

Airport contact information

Address: Clarion United States

Other aviation service providers

Flight schools

Clarion County Airport Authority

Clarion County Airport Authority

Satellite view of KAXQ